Time;durP1;ratioP1;P1;durP2;ratioP2;P2;SDS_P1;SDS_P2;PMS_P1;PMS_P2;Temp;Humidity;BMP_temperature;BMP_pressure;BME280_temperature;BME280_humidity;BME280_pressure;Samples;Min_cycle;Max_cycle;Signal;HPM_P1;HPM_P2
2022/11/27 00:00:46;;;;;;;31.55;28.48;;;;;;;;;;5106624;28;20208;-85
2022/11/27 00:03:13;;;;;;;30.40;27.80;;;;;;;;;;5106267;28;20215;-85
2022/11/27 00:05:40;;;;;;;31.70;28.70;;;;;;;;;;5106615;28;20490;-85
2022/11/27 00:08:07;;;;;;;31.40;28.80;;;;;;;;;;5106423;28;20990;-85
2022/11/27 00:10:36;;;;;;;33.80;30.43;;;;;;;;;;5106109;28;20811;-85
2022/11/27 00:13:03;;;;;;;30.33;27.43;;;;;;;;;;5105563;28;20460;-85
2022/11/27 00:15:30;;;;;;;29.07;26.47;;;;;;;;;;5106321;28;20475;-85
2022/11/27 00:17:57;;;;;;;30.35;27.83;;;;;;;;;;5107242;28;20463;-85
2022/11/27 00:20:24;;;;;;;33.17;30.08;;;;;;;;;;5106743;28;20565;-85
2022/11/27 00:22:51;;;;;;;30.50;27.90;;;;;;;;;;5105700;28;20209;-85
2022/11/27 00:25:18;;;;;;;30.23;27.45;;;;;;;;;;5106642;28;20233;-86
2022/11/27 00:27:47;;;;;;;31.08;28.02;;;;;;;;;;5105552;28;20207;-86
2022/11/27 00:30:15;;;;;;;29.92;26.90;;;;;;;;;;5105983;28;20212;-86
2022/11/27 00:32:42;;;;;;;30.92;28.02;;;;;;;;;;5105671;28;20213;-85
2022/11/27 00:35:10;;;;;;;27.85;25.55;;;;;;;;;;5105293;28;20219;-85
2022/11/27 00:37:37;;;;;;;30.75;28.05;;;;;;;;;;5105641;28;20206;-85
2022/11/27 00:40:04;;;;;;;30.07;27.13;;;;;;;;;;5105357;28;20201;-85
2022/11/27 00:42:31;;;;;;;29.73;27.20;;;;;;;;;;5104584;28;20449;-85
2022/11/27 00:45:00;;;;;;;28.35;26.02;;;;;;;;;;5105424;28;20225;-85
2022/11/27 00:47:27;;;;;;;31.38;28.05;;;;;;;;;;5105707;28;20204;-85
2022/11/27 00:49:54;;;;;;;29.90;27.33;;;;;;;;;;5105617;28;20234;-85
2022/11/27 00:52:21;;;;;;;28.47;25.83;;;;;;;;;;5105748;28;20213;-85
2022/11/27 00:54:48;;;;;;;27.50;25.40;;;;;;;;;;5105213;28;20482;-86
2022/11/27 00:57:15;;;;;;;29.42;26.55;;;;;;;;;;5105110;28;20276;-85
2022/11/27 00:59:42;;;;;;;28.43;25.93;;;;;;;;;;5105756;28;20212;-86
2022/11/27 01:02:10;;;;;;;31.55;28.85;;;;;;;;;;5104779;28;20451;-85
2022/11/27 01:04:38;;;;;;;27.95;25.58;;;;;;;;;;5105499;28;20716;-85
2022/11/27 01:07:05;;;;;;;28.40;26.15;;;;;;;;;;5106083;28;20202;-85
2022/11/27 01:09:32;;;;;;;28.90;26.50;;;;;;;;;;5106401;28;20221;-85
2022/11/27 01:11:59;;;;;;;29.70;26.70;;;;;;;;;;5104542;28;20209;-86
2022/11/27 01:14:26;;;;;;;27.67;25.48;;;;;;;;;;5110208;28;20215;-85
2022/11/27 01:16:53;;;;;;;28.20;26.00;;;;;;;;;;5109662;28;20215;-85
2022/11/27 01:19:21;;;;;;;30.55;28.00;;;;;;;;;;5109815;28;20220;-85
2022/11/27 01:21:48;;;;;;;28.48;26.23;;;;;;;;;;5109118;28;20217;-86
2022/11/27 01:24:16;;;;;;;28.88;26.33;;;;;;;;;;5109545;28;20213;-85
2022/11/27 01:26:43;;;;;;;28.63;26.05;;;;;;;;;;5109602;28;20248;-85
2022/11/27 01:29:11;;;;;;;27.17;25.27;;;;;;;;;;5109217;28;20209;-85
2022/11/27 01:31:38;;;;;;;28.08;25.75;;;;;;;;;;5109070;28;20214;-85
2022/11/27 01:34:08;;;;;;;27.08;24.55;;;;;;;;;;5109043;28;20208;-85
2022/11/27 01:36:37;;;;;;;28.48;25.80;;;;;;;;;;5107817;28;20605;-85
2022/11/27 01:39:04;;;;;;;28.25;25.92;;;;;;;;;;5109303;28;20227;-85
2022/11/27 01:41:32;;;;;;;29.13;26.67;;;;;;;;;;5108587;28;20230;-86
2022/11/27 01:43:59;;;;;;;29.10;26.80;;;;;;;;;;5107950;28;20212;-86
2022/11/27 01:46:32;;;;;;;27.70;25.60;;;;;;;;;;5108286;28;20236;-85
2022/11/27 01:49:01;;;;;;;27.17;25.27;;;;;;;;;;5108604;28;20669;-85
2022/11/27 01:51:29;;;;;;;29.33;26.92;;;;;;;;;;5108293;28;20212;-86
2022/11/27 01:53:58;;;;;;;27.83;25.52;;;;;;;;;;5107827;28;20209;-86
2022/11/27 01:56:26;;;;;;;30.13;27.17;;;;;;;;;;5108290;28;20231;-84
2022/11/27 01:58:53;;;;;;;28.83;26.33;;;;;;;;;;5107709;28;20196;-87
2022/11/27 02:01:23;;;;;;;27.45;25.35;;;;;;;;;;5106961;28;20207;-86
2022/11/27 02:03:50;;;;;;;27.55;25.27;;;;;;;;;;5107353;28;20189;-86
2022/11/27 02:06:17;;;;;;;29.02;26.70;;;;;;;;;;5107533;28;20228;-86
2022/11/27 02:08:44;;;;;;;28.67;26.13;;;;;;;;;;5108315;28;20221;-86
2022/11/27 02:11:16;;;;;;;28.38;25.98;;;;;;;;;;5107232;28;20204;-86
2022/11/27 02:13:45;;;;;;;27.38;25.27;;;;;;;;;;5107224;28;20227;-85
2022/11/27 02:16:16;;;;;;;28.08;25.95;;;;;;;;;;5107334;28;20244;-86
2022/11/27 02:18:46;;;;;;;27.40;25.40;;;;;;;;;;5108129;28;20216;-86
2022/11/27 02:21:18;;;;;;;28.83;26.15;;;;;;;;;;5107741;28;20215;-86
2022/11/27 02:24:04;;;;;;;27.10;25.00;;;;;;;;;;5106727;28;20197;-86
2022/11/27 02:26:46;;;;;;;27.00;25.00;;;;;;;;;;5107343;28;20673;-86
2022/11/27 02:29:14;;;;;;;28.23;26.25;;;;;;;;;;5107506;28;20214;-86
2022/11/27 02:31:47;;;;;;;27.55;25.25;;;;;;;;;;5106611;28;20207;-86
2022/11/27 02:34:23;;;;;;;29.75;26.80;;;;;;;;;;5105604;28;20201;-86
2022/11/27 02:36:54;;;;;;;28.30;26.08;;;;;;;;;;5106015;28;20236;-86
2022/11/27 02:39:24;;;;;;;28.40;26.10;;;;;;;;;;5104706;28;20209;-86
2022/11/27 02:41:54;;;;;;;29.05;26.50;;;;;;;;;;5105152;28;20691;-86
2022/11/27 02:44:24;;;;;;;29.58;26.98;;;;;;;;;;5106169;28;20672;-86
2022/11/27 02:46:51;;;;;;;29.13;26.70;;;;;;;;;;5104975;28;20213;-86
2022/11/27 02:49:26;;;;;;;29.35;26.77;;;;;;;;;;5105110;28;20232;-86
2022/11/27 02:51:56;;;;;;;26.80;24.75;;;;;;;;;;5103734;28;20210;-86
2022/11/27 02:54:26;;;;;;;28.40;25.92;;;;;;;;;;5106372;28;20199;-86
2022/11/27 02:56:54;;;;;;;27.95;25.95;;;;;;;;;;5105493;28;20676;-86
2022/11/27 02:59:22;;;;;;;28.55;26.15;;;;;;;;;;5106390;28;20205;-86
2022/11/27 03:01:52;;;;;;;28.58;25.80;;;;;;;;;;5105355;28;20221;-86
2022/11/27 03:04:21;;;;;;;27.63;25.30;;;;;;;;;;5105527;28;20536;-86
2022/11/27 03:06:49;;;;;;;29.38;26.67;;;;;;;;;;5105798;28;20239;-86
2022/11/27 03:09:19;;;;;;;28.30;26.00;;;;;;;;;;5105642;28;20232;-86
2022/11/27 03:11:46;;;;;;;28.63;26.25;;;;;;;;;;5103524;28;20592;-88
2022/11/27 03:14:14;;;;;;;28.23;25.77;;;;;;;;;;5105224;28;20223;-86
2022/11/27 03:16:44;;;;;;;29.42;26.88;;;;;;;;;;5105139;28;20221;-86
2022/11/27 03:19:18;;;;;;;28.10;25.73;;;;;;;;;;5105775;28;20212;-86
2022/11/27 03:21:47;;;;;;;29.63;26.70;;;;;;;;;;5104549;28;20210;-86
2022/11/27 03:24:14;;;;;;;29.33;26.63;;;;;;;;;;5105415;28;20216;-86
2022/11/27 03:26:42;;;;;;;29.17;26.48;;;;;;;;;;5104724;28;20244;-86
2022/11/27 03:29:11;;;;;;;28.35;25.88;;;;;;;;;;5105265;28;20243;-86
2022/11/27 03:31:38;;;;;;;28.73;26.33;;;;;;;;;;5104951;28;20719;-86
2022/11/27 03:34:05;;;;;;;28.30;26.10;;;;;;;;;;5105190;28;20215;-86
2022/11/27 03:36:34;;;;;;;30.58;27.80;;;;;;;;;;5105193;28;20236;-86
2022/11/27 03:39:01;;;;;;;29.77;27.17;;;;;;;;;;5105669;28;20674;-86
2022/11/27 03:41:35;;;;;;;28.17;26.02;;;;;;;;;;5104111;28;20213;-86
2022/11/27 03:44:05;;;;;;;28.90;26.52;;;;;;;;;;5104406;28;20207;-86
2022/11/27 03:46:39;;;;;;;29.80;27.00;;;;;;;;;;5104387;28;20240;-85
2022/11/27 03:49:14;;;;;;;30.63;27.92;;;;;;;;;;5104857;28;20212;-87
2022/11/27 03:51:47;;;;;;;28.00;25.73;;;;;;;;;;5105207;28;20189;-86
2022/11/27 03:54:18;;;;;;;29.20;26.55;;;;;;;;;;5104334;28;20201;-86
2022/11/27 03:56:49;;;;;;;30.50;27.90;;;;;;;;;;5104361;28;20225;-86
2022/11/27 03:59:19;;;;;;;31.08;28.35;;;;;;;;;;5104572;28;20213;-86
2022/11/27 04:01:46;;;;;;;36.78;30.00;;;;;;;;;;5103760;28;20234;-87
2022/11/27 04:04:13;;;;;;;29.40;26.75;;;;;;;;;;5104489;28;20205;-86
2022/11/27 04:06:40;;;;;;;31.63;29.02;;;;;;;;;;5105120;28;20225;-86
2022/11/27 04:09:08;;;;;;;30.50;27.40;;;;;;;;;;5104387;28;20216;-85
2022/11/27 04:11:36;;;;;;;30.15;27.70;;;;;;;;;;5103600;28;20214;-87
2022/11/27 04:14:03;;;;;;;29.83;27.30;;;;;;;;;;5103252;28;20212;-86
2022/11/27 04:16:32;;;;;;;29.40;27.10;;;;;;;;;;5103646;28;20232;-86
2022/11/27 04:18:59;;;;;;;32.13;29.42;;;;;;;;;;5105422;28;20229;-86
2022/11/27 04:21:26;;;;;;;30.63;27.52;;;;;;;;;;5104496;28;20214;-86
2022/11/27 04:23:53;;;;;;;29.05;26.75;;;;;;;;;;5105258;28;20204;-86
2022/11/27 04:26:22;;;;;;;30.20;27.73;;;;;;;;;;5104035;28;20783;-86
2022/11/27 04:28:49;;;;;;;29.83;27.20;;;;;;;;;;5104745;28;20208;-86
2022/11/27 04:31:17;;;;;;;30.92;27.70;;;;;;;;;;5104625;28;20228;-86
2022/11/27 04:33:44;;;;;;;30.73;28.23;;;;;;;;;;5103939;28;20307;-86
2022/11/27 04:36:11;;;;;;;33.08;29.23;;;;;;;;;;5104060;28;20221;-86
2022/11/27 04:38:38;;;;;;;31.00;28.33;;;;;;;;;;5104343;28;20201;-86
2022/11/27 04:41:06;;;;;;;31.20;28.17;;;;;;;;;;5103690;28;20214;-86
2022/11/27 04:43:34;;;;;;;29.83;27.13;;;;;;;;;;5104582;28;20209;-86
2022/11/27 04:46:01;;;;;;;32.65;29.75;;;;;;;;;;5103794;28;20227;-86
2022/11/27 04:48:28;;;;;;;31.20;28.15;;;;;;;;;;5104388;28;20234;-86
2022/11/27 04:50:55;;;;;;;32.50;29.13;;;;;;;;;;5104677;28;20220;-86
2022/11/27 04:53:22;;;;;;;31.27;28.38;;;;;;;;;;5104332;28;20645;-86
2022/11/27 04:55:51;;;;;;;30.98;28.23;;;;;;;;;;5104442;28;20224;-86
2022/11/27 04:58:18;;;;;;;32.83;29.48;;;;;;;;;;5105047;28;20250;-86
2022/11/27 05:00:46;;;;;;;32.20;28.92;;;;;;;;;;5103691;28;20204;-85
2022/11/27 05:03:14;;;;;;;30.35;27.50;;;;;;;;;;5103611;28;20214;-85
2022/11/27 05:05:41;;;;;;;32.53;29.55;;;;;;;;;;5103771;28;20220;-85
2022/11/27 05:08:08;;;;;;;30.80;28.10;;;;;;;;;;5103805;28;20208;-85
2022/11/27 05:10:35;;;;;;;29.85;27.15;;;;;;;;;;5104628;28;20228;-86
2022/11/27 05:13:02;;;;;;;31.27;28.55;;;;;;;;;;5102888;28;20215;-86
2022/11/27 05:15:29;;;;;;;30.80;27.85;;;;;;;;;;5103602;28;20227;-86
2022/11/27 05:17:57;;;;;;;30.52;27.92;;;;;;;;;;5104401;28;20220;-86
2022/11/27 05:20:24;;;;;;;31.77;28.65;;;;;;;;;;5104832;28;20214;-86
2022/11/27 05:22:51;;;;;;;29.08;26.88;;;;;;;;;;5103380;28;20216;-86
2022/11/27 05:25:18;;;;;;;29.00;26.58;;;;;;;;;;5103485;28;20227;-86
2022/11/27 05:27:45;;;;;;;29.70;26.90;;;;;;;;;;5103928;28;20207;-86
2022/11/27 05:30:13;;;;;;;30.65;27.85;;;;;;;;;;5103962;28;20236;-85
2022/11/27 05:32:40;;;;;;;32.17;29.10;;;;;;;;;;5102361;28;20219;-86
2022/11/27 05:35:09;;;;;;;30.65;28.08;;;;;;;;;;5103299;28;20230;-86
2022/11/27 05:37:36;;;;;;;32.17;29.02;;;;;;;;;;5103361;28;20213;-86
2022/11/27 05:40:03;;;;;;;30.67;27.95;;;;;;;;;;5102740;28;20204;-86
2022/11/27 05:42:30;;;;;;;32.38;29.50;;;;;;;;;;5103056;28;20210;-86
2022/11/27 05:44:57;;;;;;;31.17;28.52;;;;;;;;;;5102835;28;20231;-86
2022/11/27 05:47:24;;;;;;;30.40;27.55;;;;;;;;;;5103379;28;20216;-86
2022/11/27 05:49:51;;;;;;;30.67;27.85;;;;;;;;;;5103469;28;20220;-86
2022/11/27 05:52:20;;;;;;;30.73;28.20;;;;;;;;;;5102562;28;20581;-86
2022/11/27 05:54:47;;;;;;;29.80;27.20;;;;;;;;;;5102848;28;20312;-86
2022/11/27 05:57:14;;;;;;;30.38;27.65;;;;;;;;;;5102889;28;20668;-86
2022/11/27 05:59:41;;;;;;;30.27;27.67;;;;;;;;;;5105264;28;20669;-86
2022/11/27 06:02:08;;;;;;;30.58;27.38;;;;;;;;;;5106244;28;20578;-86
2022/11/27 06:04:35;;;;;;;29.08;26.50;;;;;;;;;;5107099;28;20404;-86
2022/11/27 06:07:02;;;;;;;31.65;28.77;;;;;;;;;;5107066;28;20228;-86
2022/11/27 06:09:30;;;;;;;29.27;26.67;;;;;;;;;;5106970;28;20207;-86
2022/11/27 06:11:57;;;;;;;29.55;26.98;;;;;;;;;;5106841;28;20208;-86
2022/11/27 06:14:24;;;;;;;28.70;26.38;;;;;;;;;;5106229;28;20208;-86
2022/11/27 06:16:52;;;;;;;29.52;27.23;;;;;;;;;;5105272;28;20219;-86
2022/11/27 06:19:19;;;;;;;28.52;26.30;;;;;;;;;;5106497;28;20233;-86
2022/11/27 06:21:46;;;;;;;29.15;26.60;;;;;;;;;;5106067;28;20207;-86
2022/11/27 06:24:14;;;;;;;29.05;26.60;;;;;;;;;;5106573;28;20207;-86
2022/11/27 06:26:43;;;;;;;29.38;26.52;;;;;;;;;;5106415;28;20220;-86
2022/11/27 06:29:10;;;;;;;29.30;26.67;;;;;;;;;;5106186;28;20216;-86
2022/11/27 06:31:37;;;;;;;29.92;27.42;;;;;;;;;;5106716;28;20224;-86
2022/11/27 06:34:05;;;;;;;28.60;26.00;;;;;;;;;;5106132;28;20208;-86
2022/11/27 06:36:32;;;;;;;29.08;26.55;;;;;;;;;;5105198;28;20218;-86
2022/11/27 06:38:59;;;;;;;29.05;26.55;;;;;;;;;;5106012;28;20214;-86
2022/11/27 06:41:27;;;;;;;28.23;25.95;;;;;;;;;;5106025;28;20202;-86
2022/11/27 06:43:56;;;;;;;29.50;27.20;;;;;;;;;;5104907;28;20730;-86
2022/11/27 06:46:23;;;;;;;29.30;26.65;;;;;;;;;;5103522;28;20226;-86
2022/11/27 06:48:52;;;;;;;31.77;29.17;;;;;;;;;;5105399;28;20215;-86
2022/11/27 06:51:20;;;;;;;30.70;28.10;;;;;;;;;;5105044;28;20228;-87
2022/11/27 06:53:47;;;;;;;30.70;27.95;;;;;;;;;;5105518;28;20205;-86
2022/11/27 06:56:16;;;;;;;28.60;26.20;;;;;;;;;;5105508;28;20228;-86
2022/11/27 06:58:43;;;;;;;30.42;27.63;;;;;;;;;;5105796;28;20199;-86
2022/11/27 07:01:13;;;;;;;29.10;26.70;;;;;;;;;;5098224;28;20208;-86
2022/11/27 07:03:40;;;;;;;30.27;27.77;;;;;;;;;;5088402;28;20209;-86
2022/11/27 07:06:10;;;;;;;31.95;28.98;;;;;;;;;;5097959;28;20221;-86
2022/11/27 07:08:37;;;;;;;30.05;27.63;;;;;;;;;;5095856;28;20215;-79
2022/11/27 07:11:05;;;;;;;30.02;27.13;;;;;;;;;;5074938;28;20223;-78
2022/11/27 07:13:32;;;;;;;32.38;29.48;;;;;;;;;;5075174;28;20231;-78
2022/11/27 07:16:00;;;;;;;28.02;25.75;;;;;;;;;;5074953;28;20666;-78
2022/11/27 07:18:29;;;;;;;27.98;25.83;;;;;;;;;;5075466;28;20714;-78
2022/11/27 07:20:56;;;;;;;27.67;25.45;;;;;;;;;;5075726;28;20563;-79
2022/11/27 07:23:23;;;;;;;29.17;26.55;;;;;;;;;;5075073;28;20221;-78
2022/11/27 07:25:50;;;;;;;28.27;25.95;;;;;;;;;;5075275;28;20233;-79
2022/11/27 07:28:17;;;;;;;28.50;25.90;;;;;;;;;;5075524;28;20214;-78
2022/11/27 07:30:45;;;;;;;28.15;25.95;;;;;;;;;;5074368;28;20221;-78
2022/11/27 07:33:12;;;;;;;29.88;27.25;;;;;;;;;;5074461;28;20198;-78
2022/11/27 07:35:40;;;;;;;27.98;25.67;;;;;;;;;;5074458;28;20223;-78
2022/11/27 07:38:08;;;;;;;28.58;26.25;;;;;;;;;;5074432;28;20570;-78
2022/11/27 07:40:35;;;;;;;28.67;26.33;;;;;;;;;;5074488;28;20555;-78
2022/11/27 07:43:02;;;;;;;28.92;26.23;;;;;;;;;;5073910;28;20208;-78
2022/11/27 07:45:29;;;;;;;29.70;26.88;;;;;;;;;;5073735;28;20220;-78
2022/11/27 07:47:56;;;;;;;29.73;26.63;;;;;;;;;;5079983;28;20206;-78
2022/11/27 07:50:23;;;;;;;29.88;27.50;;;;;;;;;;5075136;28;20765;-78
2022/11/27 07:52:51;;;;;;;29.65;27.20;;;;;;;;;;5073686;28;20208;-78
2022/11/27 07:55:18;;;;;;;31.23;28.88;;;;;;;;;;5073322;28;20221;-79
2022/11/27 07:57:45;;;;;;;29.92;27.52;;;;;;;;;;5073831;28;20208;-78
2022/11/27 08:00:13;;;;;;;28.48;26.02;;;;;;;;;;5073985;28;20205;-79
2022/11/27 08:02:40;;;;;;;29.10;26.67;;;;;;;;;;5073139;28;20204;-78
2022/11/27 08:05:07;;;;;;;32.00;29.40;;;;;;;;;;5073407;28;20235;-79
2022/11/27 08:07:35;;;;;;;27.83;25.75;;;;;;;;;;5074012;28;20189;-78
2022/11/27 08:10:03;;;;;;;31.58;28.85;;;;;;;;;;5073746;28;20208;-78
2022/11/27 08:12:30;;;;;;;31.42;28.85;;;;;;;;;;5073367;28;20209;-78
2022/11/27 08:14:57;;;;;;;30.88;28.48;;;;;;;;;;5073500;28;20699;-79
2022/11/27 08:17:25;;;;;;;29.17;26.75;;;;;;;;;;5073696;28;20314;-78
2022/11/27 08:19:52;;;;;;;29.35;26.92;;;;;;;;;;5073949;28;20193;-79
2022/11/27 08:22:19;;;;;;;27.52;25.48;;;;;;;;;;5073073;28;20201;-79
2022/11/27 08:24:47;;;;;;;29.15;26.65;;;;;;;;;;5072825;28;20743;-78
2022/11/27 08:27:16;;;;;;;28.40;26.10;;;;;;;;;;5073135;28;20262;-79
2022/11/27 08:29:43;;;;;;;30.55;28.02;;;;;;;;;;5073241;28;20565;-79
2022/11/27 08:32:10;;;;;;;31.65;27.65;;;;;;;;;;5072694;28;20237;-77
2022/11/27 08:34:37;;;;;;;26.63;24.42;;;;;;;;;;5073543;28;20216;-78
2022/11/27 08:37:04;;;;;;;29.33;26.75;;;;;;;;;;5073705;28;20205;-79
2022/11/27 08:39:31;;;;;;;30.48;27.65;;;;;;;;;;5073095;28;20287;-78
2022/11/27 08:41:58;;;;;;;31.27;28.70;;;;;;;;;;5072464;28;20390;-79
2022/11/27 08:44:27;;;;;;;28.13;26.02;;;;;;;;;;5073119;28;20215;-78
2022/11/27 08:46:54;;;;;;;26.10;24.30;;;;;;;;;;5072766;28;20216;-78
2022/11/27 08:49:21;;;;;;;30.02;27.52;;;;;;;;;;5073032;28;20219;-77
2022/11/27 08:51:48;;;;;;;29.45;27.05;;;;;;;;;;5072324;28;20224;-78
2022/11/27 08:54:15;;;;;;;28.65;26.35;;;;;;;;;;5072628;28;20292;-77
2022/11/27 08:56:42;;;;;;;25.90;24.00;;;;;;;;;;5073183;28;20228;-78
2022/11/27 08:59:09;;;;;;;28.88;26.55;;;;;;;;;;5073069;28;20204;-78
2022/11/27 09:01:39;;;;;;;27.50;25.40;;;;;;;;;;5073196;28;20205;-78
2022/11/27 09:04:06;;;;;;;28.40;25.70;;;;;;;;;;5072788;28;20204;-78
2022/11/27 09:06:35;;;;;;;28.15;25.92;;;;;;;;;;5072022;28;20240;-79
2022/11/27 09:09:02;;;;;;;28.38;26.27;;;;;;;;;;5072761;28;20662;-78
2022/11/27 09:11:31;;;;;;;24.45;22.92;;;;;;;;;;5073222;28;20221;-78
2022/11/27 09:13:59;;;;;;;26.92;25.02;;;;;;;;;;5072842;28;20200;-79
2022/11/27 09:16:26;;;;;;;26.75;24.73;;;;;;;;;;5072670;28;20253;-79
2022/11/27 09:18:55;;;;;;;28.23;25.58;;;;;;;;;;5073553;28;20253;-78
2022/11/27 09:21:22;;;;;;;26.70;24.80;;;;;;;;;;5072562;28;20197;-78
2022/11/27 09:23:52;;;;;;;28.58;26.17;;;;;;;;;;5072491;28;20205;-78
2022/11/27 09:26:20;;;;;;;24.45;22.83;;;;;;;;;;5073173;28;20258;-78
2022/11/27 09:28:47;;;;;;;28.57;26.57;;;;;;;;;;5072797;28;20201;-78
2022/11/27 09:31:15;;;;;;;29.75;27.45;;;;;;;;;;5072886;28;20499;-78
2022/11/27 09:33:43;;;;;;;30.35;28.17;;;;;;;;;;5072875;28;20305;-79
2022/11/27 09:36:12;;;;;;;30.52;28.33;;;;;;;;;;5077177;28;20279;-78
2022/11/27 09:38:39;;;;;;;30.77;28.48;;;;;;;;;;5076917;28;20868;-79
2022/11/27 09:41:16;;;;;;;28.25;26.35;;;;;;;;;;5078539;28;20779;-80
2022/11/27 09:43:45;;;;;;;27.97;25.87;;;;;;;;;;5077277;28;20195;-79
2022/11/27 09:46:16;;;;;;;28.55;26.35;;;;;;;;;;5076786;28;20479;-78
2022/11/27 09:48:45;;;;;;;29.73;27.48;;;;;;;;;;5076940;28;20198;-79
2022/11/27 09:51:16;;;;;;;27.80;25.67;;;;;;;;;;5077186;28;20262;-79
2022/11/27 09:53:45;;;;;;;29.23;27.13;;;;;;;;;;5077110;28;20206;-79
2022/11/27 09:56:14;;;;;;;30.27;28.17;;;;;;;;;;5077442;28;20230;-79
2022/11/27 09:58:42;;;;;;;30.00;27.75;;;;;;;;;;5077697;28;20575;-79
2022/11/27 10:01:10;;;;;;;31.38;28.48;;;;;;;;;;5077273;28;20676;-78
2022/11/27 10:03:38;;;;;;;27.60;25.75;;;;;;;;;;5076965;28;20214;-79
2022/11/27 10:06:07;;;;;;;27.42;25.08;;;;;;;;;;5076710;28;20223;-78
2022/11/27 10:08:40;;;;;;;27.50;25.35;;;;;;;;;;5077542;28;20206;-79
2022/11/27 10:11:15;;;;;;;28.60;26.00;;;;;;;;;;5077166;28;20943;-78
2022/11/27 10:13:48;;;;;;;28.08;25.77;;;;;;;;;;5076869;28;20219;-78
2022/11/27 10:16:20;;;;;;;27.73;25.67;;;;;;;;;;5077418;28;20231;-79
2022/11/27 10:18:48;;;;;;;27.67;25.75;;;;;;;;;;5077062;28;20460;-79
2022/11/27 10:21:16;;;;;;;26.45;24.40;;;;;;;;;;5075826;28;20214;-78
2022/11/27 10:23:47;;;;;;;27.07;24.83;;;;;;;;;;5076808;28;20218;-79
2022/11/27 10:26:18;;;;;;;27.08;24.90;;;;;;;;;;5077724;28;20447;-78
2022/11/27 10:28:49;;;;;;;25.60;23.67;;;;;;;;;;5077637;28;20191;-82
2022/11/27 10:31:20;;;;;;;27.63;25.53;;;;;;;;;;5076424;28;20518;-78
2022/11/27 10:33:48;;;;;;;25.73;24.00;;;;;;;;;;5075386;28;20886;-77
2022/11/27 10:36:17;;;;;;;29.20;26.77;;;;;;;;;;5075256;28;20829;-78
2022/11/27 10:38:46;;;;;;;29.00;26.73;;;;;;;;;;5076527;28;20438;-78
2022/11/27 10:41:17;;;;;;;26.80;25.00;;;;;;;;;;5075774;28;20202;-79
2022/11/27 10:43:45;;;;;;;27.87;25.87;;;;;;;;;;5074450;28;20470;-77
2022/11/27 10:46:14;;;;;;;27.07;25.27;;;;;;;;;;5074083;28;20469;-78
2022/11/27 10:48:41;;;;;;;26.30;24.60;;;;;;;;;;5075465;28;20445;-77
2022/11/27 10:51:14;;;;;;;27.87;25.77;;;;;;;;;;5074951;28;20491;-78
2022/11/27 10:53:43;;;;;;;26.67;24.77;;;;;;;;;;5074792;28;20439;-78
2022/11/27 10:56:30;;;;;;;30.17;27.33;;;;;;;;;;5075274;28;20468;-77
2022/11/27 10:58:58;;;;;;;27.50;25.50;;;;;;;;;;5074481;28;20435;-77
2022/11/27 11:01:26;;;;;;;26.50;24.10;;;;;;;;;;5075020;28;20449;-77
2022/11/27 11:04:05;;;;;;;25.07;23.33;;;;;;;;;;5074007;28;20991;-77
2022/11/27 11:06:33;;;;;;;25.03;23.20;;;;;;;;;;5074545;28;20475;-77
2022/11/27 11:09:04;;;;;;;25.73;23.97;;;;;;;;;;5074356;28;20466;-77
2022/11/27 11:11:33;;;;;;;25.30;23.60;;;;;;;;;;5076215;28;20549;-76
2022/11/27 11:14:00;;;;;;;24.03;22.60;;;;;;;;;;5074351;28;20449;-76
2022/11/27 11:16:29;;;;;;;25.70;23.83;;;;;;;;;;5074837;28;20496;-77
2022/11/27 11:18:56;;;;;;;25.40;23.90;;;;;;;;;;5074327;28;20490;-77
2022/11/27 11:21:26;;;;;;;25.23;23.53;;;;;;;;;;5074536;28;20829;-77
2022/11/27 11:23:57;;;;;;;25.00;23.33;;;;;;;;;;5074152;28;20431;-77
2022/11/27 11:26:26;;;;;;;23.03;21.43;;;;;;;;;;5074595;28;20468;-76
2022/11/27 11:28:56;;;;;;;24.60;22.80;;;;;;;;;;5074650;28;20499;-76
2022/11/27 11:31:28;;;;;;;26.00;23.90;;;;;;;;;;5074454;28;20469;-77
2022/11/27 11:33:56;;;;;;;26.77;24.73;;;;;;;;;;5073850;28;20409;-77
2022/11/27 11:36:24;;;;;;;25.43;23.67;;;;;;;;;;5074161;28;20473;-77
2022/11/27 11:38:51;;;;;;;24.07;22.37;;;;;;;;;;5074488;28;20446;-77
2022/11/27 11:41:19;;;;;;;24.20;22.63;;;;;;;;;;5073839;28;20922;-76
2022/11/27 11:43:55;;;;;;;24.60;22.90;;;;;;;;;;5073702;28;20450;-77
2022/11/27 11:46:24;;;;;;;23.63;22.03;;;;;;;;;;5074110;28;20474;-77
2022/11/27 11:48:59;;;;;;;24.20;22.50;;;;;;;;;;5073976;28;20449;-77
2022/11/27 11:51:42;;;;;;;25.90;23.80;;;;;;;;;;5073318;28;20510;-76
2022/11/27 11:54:15;;;;;;;23.73;22.13;;;;;;;;;;5073516;28;20456;-80
2022/11/27 11:56:47;;;;;;;24.87;23.00;;;;;;;;;;5073714;28;20469;-76
2022/11/27 11:59:19;;;;;;;25.53;23.83;;;;;;;;;;5073956;28;20442;-76
2022/11/27 12:01:53;;;;;;;25.60;23.83;;;;;;;;;;5073145;28;20433;-77
2022/11/27 12:04:37;;;;;;;26.37;24.57;;;;;;;;;;5073769;28;20440;-76
2022/11/27 12:07:09;;;;;;;25.40;23.90;;;;;;;;;;5077967;28;20787;-77
2022/11/27 12:09:45;;;;;;;25.10;23.17;;;;;;;;;;5094212;28;20448;-76
2022/11/27 12:12:18;;;;;;;27.40;25.40;;;;;;;;;;5093448;28;20490;-77
2022/11/27 12:14:50;;;;;;;26.00;24.10;;;;;;;;;;5093476;28;20436;-77
2022/11/27 12:17:23;;;;;;;26.50;24.70;;;;;;;;;;5093839;28;20444;-78
2022/11/27 12:19:59;;;;;;;26.20;24.50;;;;;;;;;;5093786;28;20404;-77
2022/11/27 12:22:36;;;;;;;25.73;24.13;;;;;;;;;;5092959;28;20432;-77
2022/11/27 12:25:10;;;;;;;26.27;24.30;;;;;;;;;;5095043;28;20507;-77
2022/11/27 12:27:43;;;;;;;25.60;23.93;;;;;;;;;;5096003;28;20436;-76
2022/11/27 12:30:15;;;;;;;25.13;23.63;;;;;;;;;;5094324;28;20429;-79
2022/11/27 12:32:50;;;;;;;24.23;22.83;;;;;;;;;;5096544;28;21018;-78
2022/11/27 12:35:23;;;;;;;24.10;22.50;;;;;;;;;;5098085;28;21009;-79
2022/11/27 12:37:55;;;;;;;24.60;23.00;;;;;;;;;;5098964;28;20432;-79
2022/11/27 12:40:41;;;;;;;24.03;22.40;;;;;;;;;;5099120;28;20447;-80
2022/11/27 12:43:18;;;;;;;24.57;22.87;;;;;;;;;;5097561;28;20800;-79
2022/11/27 12:45:50;;;;;;;25.60;24.00;;;;;;;;;;5098432;28;20849;-79
2022/11/27 12:48:19;;;;;;;24.73;23.13;;;;;;;;;;5098243;28;20433;-80
2022/11/27 12:50:49;;;;;;;24.80;23.20;;;;;;;;;;5098492;28;20445;-79
2022/11/27 12:53:18;;;;;;;23.63;22.23;;;;;;;;;;5098309;28;20482;-79
2022/11/27 12:55:47;;;;;;;24.70;22.80;;;;;;;;;;5098463;28;20821;-80
2022/11/27 12:58:17;;;;;;;24.00;22.40;;;;;;;;;;5098939;28;20445;-79
2022/11/27 13:00:48;;;;;;;23.97;22.57;;;;;;;;;;5098582;28;20906;-79
2022/11/27 13:03:19;;;;;;;23.47;22.07;;;;;;;;;;5098607;28;20444;-79
2022/11/27 13:05:48;;;;;;;23.10;21.67;;;;;;;;;;5099183;28;21130;-79
2022/11/27 13:08:17;;;;;;;23.87;22.07;;;;;;;;;;5098361;28;20449;-79
2022/11/27 13:10:47;;;;;;;24.53;22.93;;;;;;;;;;5099257;28;20452;-79
2022/11/27 13:13:17;;;;;;;23.20;21.80;;;;;;;;;;5098207;28;20461;-79
2022/11/27 13:15:47;;;;;;;23.73;22.17;;;;;;;;;;5099053;28;20472;-79
2022/11/27 13:18:18;;;;;;;24.17;22.20;;;;;;;;;;5098841;28;20434;-79
2022/11/27 13:20:46;;;;;;;23.37;21.87;;;;;;;;;;5098224;28;20908;-79
2022/11/27 13:23:13;;;;;;;24.33;22.90;;;;;;;;;;5098131;28;20974;-78
2022/11/27 13:25:43;;;;;;;21.93;20.53;;;;;;;;;;5096803;28;20468;-79
2022/11/27 13:28:19;;;;;;;23.07;21.63;;;;;;;;;;5096808;28;20454;-79
2022/11/27 13:30:46;;;;;;;24.20;22.70;;;;;;;;;;5097192;28;20431;-79
2022/11/27 13:33:22;;;;;;;22.57;21.17;;;;;;;;;;5097167;28;20467;-79
2022/11/27 13:35:49;;;;;;;23.07;21.57;;;;;;;;;;5100311;28;20475;-79
2022/11/27 13:38:23;;;;;;;23.37;21.97;;;;;;;;;;5100634;28;20511;-79
2022/11/27 13:40:51;;;;;;;23.47;21.90;;;;;;;;;;5100165;28;20424;-79
2022/11/27 13:43:23;;;;;;;23.33;21.83;;;;;;;;;;5099619;28;20802;-79
2022/11/27 13:45:51;;;;;;;25.27;23.70;;;;;;;;;;5100145;28;20869;-79
2022/11/27 13:48:35;;;;;;;29.57;27.27;;;;;;;;;;5099696;28;20510;-79
2022/11/27 13:51:06;;;;;;;27.23;25.03;;;;;;;;;;5100305;28;20468;-79
2022/11/27 13:53:34;;;;;;;24.73;23.03;;;;;;;;;;5100132;28;20479;-79
2022/11/27 13:56:01;;;;;;;26.20;24.30;;;;;;;;;;5100283;28;20443;-79
2022/11/27 13:58:30;;;;;;;24.43;22.73;;;;;;;;;;5100115;28;20453;-79
2022/11/27 14:00:57;;;;;;;25.20;23.57;;;;;;;;;;5100451;28;20422;-80
2022/11/27 14:03:25;;;;;;;25.23;23.53;;;;;;;;;;5099832;28;20448;-78
2022/11/27 14:05:52;;;;;;;25.40;23.50;;;;;;;;;;5099824;28;20475;-79
2022/11/27 14:08:22;;;;;;;26.83;25.10;;;;;;;;;;5100402;28;20444;-79
2022/11/27 14:10:51;;;;;;;28.17;25.90;;;;;;;;;;5099989;28;20950;-79
2022/11/27 14:13:19;;;;;;;25.20;23.70;;;;;;;;;;5098009;28;20517;-79
2022/11/27 14:16:00;;;;;;;25.97;24.13;;;;;;;;;;5099454;28;20448;-79
2022/11/27 14:18:28;;;;;;;24.67;23.07;;;;;;;;;;5099377;28;20456;-79
2022/11/27 14:20:57;;;;;;;25.23;23.53;;;;;;;;;;5102024;28;20823;-79
2022/11/27 14:23:30;;;;;;;23.60;22.30;;;;;;;;;;5097745;28;20443;-78
2022/11/27 14:26:07;;;;;;;24.53;22.90;;;;;;;;;;5098060;28;20476;-78